createdAt,value
2023-01-29T00:01:24.789Z,61.27
2023-01-29T00:03:54.785Z,61.24
2023-01-29T00:06:23.540Z,61.24
2023-01-29T00:08:51.889Z,61.29
2023-01-29T00:11:20.007Z,61.35
2023-01-29T00:13:50.586Z,61.31
2023-01-29T00:16:19.791Z,61.62
2023-01-29T00:18:49.768Z,61.69
2023-01-29T00:21:21.516Z,61.78
2023-01-29T00:23:51.018Z,61.86
2023-01-29T00:26:20.083Z,61.90
2023-01-29T00:28:48.399Z,61.81
2023-01-29T00:31:21.438Z,61.76
2023-01-29T00:33:50.751Z,61.91
2023-01-29T00:36:22.296Z,61.91
2023-01-29T00:38:59.969Z,61.78
2023-01-29T00:41:29.676Z,61.76
2023-01-29T00:43:58.797Z,61.59
2023-01-29T00:46:28.266Z,61.78
2023-01-29T00:48:56.301Z,61.84
2023-01-29T00:51:24.892Z,61.89
2023-01-29T00:53:54.003Z,61.94
2023-01-29T00:56:22.552Z,61.98
2023-01-29T00:58:50.614Z,62.00
2023-01-29T01:01:21.735Z,62.02
2023-01-29T01:03:51.130Z,62.06
2023-01-29T01:06:19.238Z,62.06
2023-01-29T01:08:47.384Z,62.11
2023-01-29T01:11:17.137Z,62.14
2023-01-29T01:13:46.210Z,62.12
2023-01-29T01:16:18.478Z,62.28
2023-01-29T01:18:47.091Z,62.54
2023-01-29T01:21:16.255Z,62.72
2023-01-29T01:23:44.996Z,63.05
2023-01-29T01:26:13.680Z,63.14
2023-01-29T01:28:42.025Z,62.96
2023-01-29T01:31:13.435Z,62.81
2023-01-29T01:33:42.255Z,62.66
2023-01-29T01:36:11.555Z,62.51
2023-01-29T01:38:40.515Z,62.38
2023-01-29T01:41:09.225Z,62.23
2023-01-29T01:43:56.345Z,62.12
2023-01-29T01:46:28.367Z,62.00
2023-01-29T01:49:06.243Z,61.88
2023-01-29T01:51:40.597Z,61.77
2023-01-29T01:54:18.535Z,61.63
2023-01-29T01:56:50.732Z,61.56
2023-01-29T01:59:20.119Z,61.52
2023-01-29T02:01:53.291Z,61.33
2023-01-29T02:04:26.135Z,61.20
2023-01-29T02:06:56.119Z,61.11
2023-01-29T02:09:32.371Z,61.00
2023-01-29T02:12:02.711Z,60.92
2023-01-29T02:14:32.004Z,60.86
2023-01-29T02:17:01.864Z,60.75
2023-01-29T02:19:57.649Z,60.58
2023-01-29T02:23:04.238Z,60.34
2023-01-29T02:26:05.227Z,60.29
2023-01-29T02:29:17.201Z,59.91
2023-01-29T02:32:04.412Z,59.66
2023-01-29T02:34:44.821Z,59.26
2023-01-29T02:37:15.927Z,58.99
2023-01-29T02:40:18.672Z,58.92
2023-01-29T02:42:57.372Z,58.80
2023-01-29T02:45:35.599Z,58.76
2023-01-29T02:48:05.018Z,58.78
2023-01-29T02:50:51.395Z,58.79
2023-01-29T02:53:38.333Z,58.80
2023-01-29T02:56:12.953Z,58.65
2023-01-29T02:58:49.028Z,58.67
2023-01-29T03:01:30.914Z,58.62
2023-01-29T03:04:07.197Z,58.60
2023-01-29T03:07:01.036Z,58.52
2023-01-29T03:09:44.866Z,58.42
2023-01-29T03:12:24.861Z,58.46
2023-01-29T03:14:55.917Z,58.45
2023-01-29T03:17:30.200Z,58.47
2023-01-29T03:19:59.478Z,58.38
2023-01-29T03:22:30.131Z,58.50
2023-01-29T03:25:02.202Z,58.55
2023-01-29T03:27:41.721Z,58.59
2023-01-29T03:30:14.890Z,58.68
2023-01-29T03:32:46.768Z,58.73
2023-01-29T03:35:21.390Z,58.80
2023-01-29T03:37:50.640Z,58.82
2023-01-29T03:40:19.417Z,59.11
2023-01-29T03:43:05.628Z,59.09
2023-01-29T03:46:03.750Z,59.15
2023-01-29T03:48:41.747Z,59.22
2023-01-29T03:51:30.156Z,59.37
2023-01-29T03:54:13.534Z,59.37
2023-01-29T03:57:08.524Z,59.32
2023-01-29T03:59:53.937Z,59.33
2023-01-29T04:02:27.093Z,59.33
2023-01-29T04:05:12.704Z,59.40
2023-01-29T04:07:44.816Z,59.41
2023-01-29T04:10:20.404Z,59.47
2023-01-29T04:13:13.960Z,59.63
2023-01-29T04:15:51.017Z,59.52
2023-01-29T04:18:19.877Z,59.64
2023-01-29T04:20:48.700Z,59.76
2023-01-29T04:23:27.941Z,59.76
2023-01-29T04:26:27.654Z,59.71
2023-01-29T04:29:07.872Z,59.70
2023-01-29T04:31:50.864Z,59.73
2023-01-29T04:34:29.680Z,59.71
2023-01-29T04:37:23.367Z,59.81
2023-01-29T04:40:20.968Z,59.95
2023-01-29T04:43:06.761Z,60.03
2023-01-29T04:46:12.755Z,60.83
2023-01-29T04:49:20.979Z,60.22
2023-01-29T04:52:13.091Z,60.23
2023-01-29T04:55:01.870Z,60.57
2023-01-29T04:58:07.172Z,60.53
2023-01-29T05:00:49.508Z,60.67
2023-01-29T05:03:17.826Z,60.84
2023-01-29T05:05:48.836Z,60.75
2023-01-29T05:08:21.954Z,60.76
2023-01-29T05:10:53.590Z,60.62
2023-01-29T05:13:23.473Z,60.69
2023-01-29T05:16:03.299Z,60.66
2023-01-29T05:18:32.441Z,60.78
2023-01-29T05:21:05.147Z,60.71
2023-01-29T05:23:35.009Z,60.69
2023-01-29T05:26:04.844Z,60.84
2023-01-29T05:28:32.983Z,60.93
2023-01-29T05:31:02.911Z,60.83
2023-01-29T05:33:31.764Z,60.82
2023-01-29T05:36:00.329Z,60.92
2023-01-29T05:38:29.455Z,60.84
2023-01-29T05:40:59.376Z,60.93
2023-01-29T05:43:28.028Z,61.05
2023-01-29T05:45:59.584Z,60.81
2023-01-29T05:48:29.811Z,60.61
2023-01-29T05:51:03.796Z,60.59
2023-01-29T05:53:32.750Z,60.32
2023-01-29T05:56:02.919Z,60.25
2023-01-29T05:58:32.713Z,60.12
2023-01-29T06:01:19.267Z,60.16
2023-01-29T06:03:48.551Z,60.16
2023-01-29T06:06:17.301Z,60.12
2023-01-29T06:08:46.113Z,60.33
2023-01-29T06:11:16.486Z,60.41
2023-01-29T06:13:46.329Z,60.72
2023-01-29T06:16:15.336Z,60.65
2023-01-29T06:18:43.653Z,60.71
2023-01-29T06:21:13.907Z,60.33
2023-01-29T06:23:43.234Z,60.28
2023-01-29T06:26:13.219Z,60.34
2023-01-29T06:28:42.764Z,60.48
2023-01-29T06:31:27.483Z,60.26
2023-01-29T06:34:00.652Z,60.41
2023-01-29T06:36:29.605Z,60.78
2023-01-29T06:38:58.281Z,61.05
2023-01-29T06:41:27.588Z,61.05
2023-01-29T06:43:55.995Z,61.14
2023-01-29T06:46:24.857Z,60.73
2023-01-29T06:48:54.024Z,60.79
2023-01-29T06:51:22.108Z,60.61
2023-01-29T06:53:50.663Z,61.21
2023-01-29T06:56:19.167Z,61.64
2023-01-29T06:58:47.520Z,61.90
2023-01-29T07:01:33.423Z,62.30
2023-01-29T07:04:04.217Z,62.36
2023-01-29T07:06:33.069Z,62.27
2023-01-29T07:09:04.767Z,62.71
2023-01-29T07:11:35.013Z,62.98
2023-01-29T07:14:04.456Z,62.69
2023-01-29T07:16:33.388Z,62.76
2023-01-29T07:19:02.069Z,62.40
2023-01-29T07:21:30.876Z,62.90
2023-01-29T07:23:59.800Z,63.03
2023-01-29T07:26:28.595Z,62.72
2023-01-29T07:28:57.529Z,62.45
2023-01-29T07:31:25.667Z,62.39
2023-01-29T07:33:54.485Z,62.28
2023-01-29T07:36:23.208Z,62.71
2023-01-29T07:38:51.938Z,62.79
2023-01-29T07:41:22.168Z,61.95
2023-01-29T07:43:50.931Z,61.80
2023-01-29T07:46:19.065Z,61.78
2023-01-29T07:48:47.979Z,62.23
2023-01-29T07:51:16.618Z,62.57
2023-01-29T07:53:46.044Z,61.14
2023-01-29T07:56:14.763Z,58.74
2023-01-29T07:58:42.925Z,56.39
2023-01-29T08:01:12.384Z,52.68
2023-01-29T08:03:41.223Z,47.91
2023-01-29T08:06:10.673Z,43.47
2023-01-29T08:08:40.032Z,39.51
2023-01-29T08:11:10.418Z,35.91
2023-01-29T08:13:39.729Z,32.87
2023-01-29T08:16:10.953Z,30.24
2023-01-29T08:18:39.841Z,28.11
2023-01-29T08:21:10.671Z,26.74
2023-01-29T08:23:41.005Z,26.22
2023-01-29T08:26:09.554Z,26.26
2023-01-29T08:28:38.195Z,25.73
2023-01-29T08:31:14.243Z,24.93
2023-01-29T08:33:43.776Z,23.67
2023-01-29T08:36:12.423Z,22.51
2023-01-29T08:38:40.678Z,21.51
2023-01-29T08:41:08.967Z,20.48
2023-01-29T08:43:37.619Z,19.74
2023-01-29T08:46:07.440Z,19.03
2023-01-29T08:48:36.507Z,18.44
2023-01-29T08:51:05.057Z,17.85
2023-01-29T08:53:33.369Z,17.38
2023-01-29T08:56:02.241Z,16.92
2023-01-29T08:58:30.931Z,16.65
2023-01-29T09:01:10.996Z,16.09
2023-01-29T09:03:39.689Z,15.78
2023-01-29T09:06:10.755Z,15.55
2023-01-29T09:08:39.761Z,15.78
2023-01-29T09:11:09.111Z,15.51
2023-01-29T09:13:37.950Z,15.27
2023-01-29T09:16:06.711Z,14.98
2023-01-29T09:18:34.817Z,14.78
2023-01-29T09:21:03.297Z,14.50
2023-01-29T09:23:32.205Z,13.74
2023-01-29T09:26:00.530Z,13.67
2023-01-29T09:28:29.073Z,13.77
2023-01-29T09:31:01.633Z,13.55
2023-01-29T09:33:31.416Z,13.47
2023-01-29T09:36:02.472Z,13.29
2023-01-29T09:38:30.699Z,13.30
2023-01-29T09:41:17.598Z,13.20
2023-01-29T09:44:35.281Z,13.20
2023-01-29T09:47:06.882Z,12.99
2023-01-29T09:49:39.332Z,13.12
2023-01-29T09:52:19.214Z,13.14
2023-01-29T09:55:17.288Z,13.49
2023-01-29T09:57:51.805Z,14.00
2023-01-29T10:00:53.550Z,14.37
2023-01-29T10:03:39.703Z,15.06
2023-01-29T10:06:11.385Z,15.32
2023-01-29T10:08:52.247Z,15.65
2023-01-29T10:11:39.229Z,15.89
2023-01-29T10:14:10.288Z,15.64
2023-01-29T10:17:15.724Z,15.31
2023-01-29T10:20:01.647Z,15.00
2023-01-29T10:22:42.233Z,13.99
2023-01-29T10:25:13.928Z,13.71
2023-01-29T10:27:54.875Z,13.78
2023-01-29T10:30:32.467Z,14.49
2023-01-29T10:33:06.030Z,15.47
2023-01-29T10:36:00.187Z,16.29
2023-01-29T10:38:47.457Z,17.58
2023-01-29T10:41:43.316Z,18.57
2023-01-29T10:44:36.338Z,19.91
2023-01-29T10:47:23.306Z,20.78
2023-01-29T10:50:18.295Z,21.15
2023-01-29T10:53:19.635Z,21.34
2023-01-29T10:56:22.766Z,20.36
2023-01-29T10:59:00.645Z,18.68
2023-01-29T11:01:35.381Z,17.67
2023-01-29T11:04:06.773Z,17.51
2023-01-29T11:06:37.082Z,17.46
2023-01-29T11:09:37.145Z,17.16
2023-01-29T11:12:14.113Z,16.21
2023-01-29T11:14:48.202Z,15.51
2023-01-29T11:17:18.719Z,15.75
2023-01-29T11:19:49.725Z,16.94
2023-01-29T11:22:20.803Z,17.87
2023-01-29T11:25:22.195Z,19.25
2023-01-29T11:27:58.925Z,20.80
2023-01-29T11:30:29.274Z,21.41
2023-01-29T11:33:26.387Z,21.86
2023-01-29T11:35:55.468Z,21.33
2023-01-29T11:38:25.922Z,20.42
2023-01-29T11:41:17.896Z,20.47
2023-01-29T11:43:46.736Z,21.04
2023-01-29T11:46:16.586Z,20.37
2023-01-29T11:48:50.940Z,20.21
2023-01-29T11:51:29.462Z,21.36
2023-01-29T11:54:02.555Z,23.12
2023-01-29T11:56:41.400Z,25.23
2023-01-29T11:59:28.779Z,28.57
2023-01-29T12:02:06.831Z,31.39
2023-01-29T12:04:39.932Z,34.06
2023-01-29T12:07:14.232Z,36.82
2023-01-29T12:09:58.480Z,39.66
2023-01-29T12:12:46.347Z,41.13
2023-01-29T12:15:34.856Z,42.85
2023-01-29T12:18:21.655Z,44.06
2023-01-29T12:20:59.746Z,45.17
2023-01-29T12:23:35.110Z,46.49
2023-01-29T12:26:10.760Z,46.86
2023-01-29T12:29:00.930Z,48.34
2023-01-29T12:31:48.451Z,48.68
2023-01-29T12:34:27.638Z,50.16
2023-01-29T12:37:03.296Z,51.32
2023-01-29T12:39:32.470Z,51.66
2023-01-29T12:42:13.475Z,51.77
2023-01-29T12:44:47.692Z,51.36
2023-01-29T12:47:52.044Z,51.13
2023-01-29T12:50:39.185Z,52.23
2023-01-29T12:53:16.367Z,52.24
2023-01-29T12:55:47.806Z,54.42
2023-01-29T12:58:24.892Z,56.80
2023-01-29T13:00:57.279Z,57.15
2023-01-29T13:03:33.343Z,57.01
2023-01-29T13:06:12.782Z,57.12
2023-01-29T13:09:05.422Z,56.75
2023-01-29T13:11:36.901Z,56.66
2023-01-29T13:14:17.572Z,56.32
2023-01-29T13:16:50.799Z,57.46
2023-01-29T13:19:29.819Z,56.00
2023-01-29T13:22:01.648Z,55.15
2023-01-29T13:24:44.349Z,55.71
2023-01-29T13:27:26.265Z,53.91
2023-01-29T13:29:57.416Z,52.94
2023-01-29T13:32:31.643Z,52.72
2023-01-29T13:35:14.169Z,51.83
2023-01-29T13:37:53.796Z,52.39
2023-01-29T13:40:26.986Z,53.35
2023-01-29T13:42:58.403Z,53.04
2023-01-29T13:45:53.399Z,52.26
2023-01-29T13:48:31.379Z,51.65
2023-01-29T13:51:03.027Z,51.48
2023-01-29T13:53:41.370Z,51.76
2023-01-29T13:56:34.667Z,51.50
2023-01-29T13:59:19.927Z,51.69
2023-01-29T14:01:51.285Z,50.67
2023-01-29T14:04:24.141Z,50.24
2023-01-29T14:06:57.948Z,49.65
2023-01-29T14:09:34.805Z,48.99
2023-01-29T14:12:29.918Z,48.51
2023-01-29T14:15:00.762Z,46.94
2023-01-29T14:17:30.526Z,45.70
2023-01-29T14:20:32.320Z,44.88
2023-01-29T14:23:17.946Z,44.79
2023-01-29T14:25:46.698Z,45.15
2023-01-29T14:28:28.578Z,45.14
2023-01-29T14:30:59.871Z,45.21
2023-01-29T14:33:35.087Z,45.23
2023-01-29T14:36:13.800Z,45.30
2023-01-29T14:38:54.108Z,45.75
2023-01-29T14:41:32.668Z,46.30
2023-01-29T14:44:39.452Z,46.68
2023-01-29T14:47:18.585Z,47.06
2023-01-29T14:49:57.261Z,47.73
2023-01-29T14:52:45.033Z,48.12
2023-01-29T14:55:43.502Z,49.42
2023-01-29T14:58:20.908Z,50.42
2023-01-29T15:00:54.775Z,51.76
2023-01-29T15:03:41.227Z,52.37
2023-01-29T15:06:16.659Z,52.43
2023-01-29T15:08:56.510Z,52.94
2023-01-29T15:11:35.463Z,53.26
2023-01-29T15:14:13.080Z,53.47
2023-01-29T15:17:20.314Z,53.52
2023-01-29T15:19:49.383Z,53.79
2023-01-29T15:22:22.796Z,53.79
2023-01-29T15:25:29.758Z,53.20
2023-01-29T15:27:59.139Z,52.90
2023-01-29T15:30:33.251Z,53.13
2023-01-29T15:33:03.199Z,52.95
2023-01-29T15:35:37.763Z,52.46
2023-01-29T15:38:16.097Z,51.83
2023-01-29T15:41:00.588Z,51.35
2023-01-29T15:43:32.358Z,51.22
2023-01-29T15:46:16.716Z,51.42
2023-01-29T15:48:47.628Z,51.41
2023-01-29T15:51:19.845Z,51.26
2023-01-29T15:53:55.469Z,51.46
2023-01-29T15:56:33.580Z,52.02
2023-01-29T15:59:09.364Z,52.51
2023-01-29T16:01:38.450Z,53.15
2023-01-29T16:04:18.206Z,53.27
2023-01-29T16:06:50.243Z,53.18
2023-01-29T16:09:22.385Z,53.65
2023-01-29T16:11:52.149Z,53.78
2023-01-29T16:14:25.419Z,53.78
2023-01-29T16:16:54.011Z,54.04
2023-01-29T16:19:30.016Z,54.15
2023-01-29T16:22:06.869Z,53.93
2023-01-29T16:24:38.020Z,53.76
2023-01-29T16:27:14.219Z,53.77
2023-01-29T16:29:43.110Z,53.76
2023-01-29T16:32:12.104Z,54.25
2023-01-29T16:34:46.755Z,54.46
2023-01-29T16:37:34.955Z,54.91
2023-01-29T16:40:27.862Z,55.15
2023-01-29T16:43:28.403Z,55.39
2023-01-29T16:46:15.636Z,55.30
2023-01-29T16:48:44.361Z,55.48
2023-01-29T16:51:31.235Z,55.70
2023-01-29T16:54:07.388Z,55.56
2023-01-29T16:56:39.422Z,55.67
2023-01-29T16:59:31.109Z,55.96
2023-01-29T17:02:01.444Z,56.11
2023-01-29T17:04:33.447Z,56.41
2023-01-29T17:07:02.950Z,56.87
2023-01-29T17:09:36.369Z,57.53
2023-01-29T17:12:10.235Z,57.65
2023-01-29T17:14:38.730Z,58.03
2023-01-29T17:17:14.850Z,58.48
2023-01-29T17:19:44.375Z,58.58
2023-01-29T17:22:13.126Z,58.46
2023-01-29T17:24:42.993Z,58.46
2023-01-29T17:27:19.979Z,59.07
2023-01-29T17:29:49.788Z,58.80
2023-01-29T17:32:19.293Z,58.29
2023-01-29T17:34:47.400Z,58.57
2023-01-29T17:37:16.868Z,58.36
2023-01-29T17:39:49.803Z,58.65
2023-01-29T17:42:20.116Z,59.35
2023-01-29T17:44:48.146Z,58.99
2023-01-29T17:47:16.296Z,58.70
2023-01-29T17:49:45.215Z,58.80
2023-01-29T17:52:13.928Z,59.12
2023-01-29T17:54:43.579Z,59.80
2023-01-29T17:57:15.325Z,60.85
2023-01-29T17:59:44.563Z,60.87
2023-01-29T18:02:29.134Z,61.13
2023-01-29T18:04:58.444Z,61.38
2023-01-29T18:07:27.231Z,61.44
2023-01-29T18:09:55.517Z,61.47
2023-01-29T18:12:23.695Z,61.93
2023-01-29T18:14:51.838Z,62.74
2023-01-29T18:17:20.173Z,63.79
2023-01-29T18:19:49.495Z,66.25
2023-01-29T18:22:17.596Z,70.11
2023-01-29T18:24:45.749Z,71.04
2023-01-29T18:27:14.810Z,70.53
2023-01-29T18:29:43.426Z,70.01
2023-01-29T18:32:11.465Z,70.28
2023-01-29T18:34:39.589Z,70.36
2023-01-29T18:37:07.671Z,70.49
2023-01-29T18:39:35.874Z,70.23
2023-01-29T18:42:04.140Z,72.30
2023-01-29T18:44:32.369Z,73.49
2023-01-29T18:47:01.000Z,74.00
2023-01-29T18:49:29.421Z,75.49
2023-01-29T18:51:57.466Z,75.95
2023-01-29T18:54:25.591Z,76.50
2023-01-29T18:57:11.125Z,77.49
2023-01-29T18:59:42.418Z,77.82
2023-01-29T19:02:18.025Z,77.86
2023-01-29T19:04:46.984Z,78.51
2023-01-29T19:07:15.865Z,79.57
2023-01-29T19:09:44.079Z,79.85
2023-01-29T19:12:12.318Z,80.22
2023-01-29T19:14:40.998Z,80.70
2023-01-29T19:17:09.376Z,80.19
2023-01-29T19:19:37.737Z,80.35
2023-01-29T19:22:05.817Z,80.46
2023-01-29T19:24:34.483Z,80.11
2023-01-29T19:27:02.761Z,79.76
2023-01-29T19:29:31.702Z,80.16
2023-01-29T19:32:00.252Z,80.63
2023-01-29T19:34:28.477Z,79.66
2023-01-29T19:36:56.805Z,78.95
2023-01-29T19:39:25.213Z,78.49
2023-01-29T19:41:53.439Z,78.19
2023-01-29T19:44:21.994Z,77.60
2023-01-29T19:46:51.355Z,77.83
2023-01-29T19:49:19.622Z,77.33
2023-01-29T19:51:47.772Z,76.52
2023-01-29T19:54:16.015Z,76.62
2023-01-29T19:56:44.150Z,76.89
2023-01-29T19:59:12.362Z,76.65
2023-01-29T20:01:41.089Z,76.71
2023-01-29T20:04:09.234Z,76.82
2023-01-29T20:06:38.033Z,76.71
2023-01-29T20:09:06.574Z,76.45
2023-01-29T20:11:34.804Z,75.99
2023-01-29T20:14:03.007Z,76.18
2023-01-29T20:16:31.326Z,76.08
2023-01-29T20:19:13.921Z,76.05
2023-01-29T20:21:47.128Z,75.67
2023-01-29T20:24:15.238Z,75.77
2023-01-29T20:26:43.311Z,75.73
2023-01-29T20:29:11.812Z,75.69
2023-01-29T20:31:40.129Z,75.53
2023-01-29T20:34:08.300Z,75.03
2023-01-29T20:36:36.546Z,74.82
2023-01-29T20:39:04.869Z,74.67
2023-01-29T20:41:33.112Z,74.72
2023-01-29T20:44:01.284Z,74.63
2023-01-29T20:46:29.357Z,74.68
2023-01-29T20:48:57.501Z,74.05
2023-01-29T20:51:26.228Z,74.04
2023-01-29T20:53:54.393Z,74.25
2023-01-29T20:56:32.054Z,74.31
2023-01-29T20:59:08.955Z,74.50
2023-01-29T21:01:37.363Z,75.17
2023-01-29T21:04:05.952Z,75.00
2023-01-29T21:06:34.783Z,75.00
2023-01-29T21:09:03.122Z,74.97
2023-01-29T21:11:31.223Z,74.97
2023-01-29T21:13:59.433Z,75.09
2023-01-29T21:16:28.398Z,75.17
2023-01-29T21:19:00.093Z,75.15
2023-01-29T21:21:28.638Z,75.27
2023-01-29T21:23:56.767Z,75.02
2023-01-29T21:26:25.767Z,74.79
2023-01-29T21:28:53.949Z,74.67
2023-01-29T21:31:22.200Z,74.56
2023-01-29T21:33:50.362Z,74.29
2023-01-29T21:36:18.520Z,73.80
2023-01-29T21:38:46.719Z,73.96
2023-01-29T21:41:15.690Z,74.07
2023-01-29T21:43:45.087Z,74.11
2023-01-29T21:46:13.355Z,74.45
2023-01-29T21:48:41.643Z,74.36
2023-01-29T21:51:09.841Z,74.20
2023-01-29T21:53:38.021Z,74.39
2023-01-29T21:56:06.856Z,74.54
2023-01-29T21:58:36.556Z,74.69
2023-01-29T22:01:35.177Z,74.61
2023-01-29T22:03:53.418Z,74.87
2023-01-29T22:06:21.576Z,74.73
2023-01-29T22:08:50.050Z,74.58
2023-01-29T22:11:18.883Z,74.56
2023-01-29T22:13:46.973Z,74.39
2023-01-29T22:16:15.299Z,74.96
2023-01-29T22:18:43.484Z,75.21
2023-01-29T22:21:11.948Z,75.20
2023-01-29T22:23:40.074Z,75.33
2023-01-29T22:26:08.254Z,75.40
2023-01-29T22:28:37.085Z,75.62
2023-01-29T22:31:06.027Z,75.47
2023-01-29T22:33:35.071Z,75.66
2023-01-29T22:36:03.722Z,75.70
2023-01-29T22:38:32.603Z,75.64
2023-01-29T22:41:01.210Z,75.43
2023-01-29T22:43:29.651Z,75.58
2023-01-29T22:45:57.915Z,75.47
2023-01-29T22:48:26.123Z,75.28
2023-01-29T22:50:58.893Z,75.36
2023-01-29T22:53:27.444Z,75.35
2023-01-29T22:55:55.618Z,75.42
2023-01-29T22:58:24.329Z,75.23
2023-01-29T23:00:53.277Z,75.22
2023-01-29T23:03:21.482Z,75.05
2023-01-29T23:05:50.644Z,74.90
2023-01-29T23:08:19.529Z,74.90
2023-01-29T23:10:47.688Z,74.78
2023-01-29T23:13:15.939Z,74.73
2023-01-29T23:15:44.608Z,74.68
2023-01-29T23:18:12.873Z,74.73
2023-01-29T23:20:41.080Z,74.68
2023-01-29T23:23:09.514Z,74.74
2023-01-29T23:25:37.584Z,74.92
2023-01-29T23:28:05.695Z,74.81
2023-01-29T23:30:34.697Z,74.95
2023-01-29T23:33:03.095Z,74.88
2023-01-29T23:35:31.434Z,74.75
2023-01-29T23:37:59.664Z,74.79
2023-01-29T23:40:27.948Z,74.85
2023-01-29T23:42:56.135Z,74.80
2023-01-29T23:45:24.747Z,74.78
2023-01-29T23:47:52.917Z,74.64
2023-01-29T23:50:21.195Z,74.18
2023-01-29T23:52:49.284Z,73.95
2023-01-29T23:55:17.568Z,74.21
2023-01-29T23:57:46.102Z,74.23
